< < Back
Terminal Aerodrome Forecast


Current Version              Previous Versions:   1  2  3  4  5  6  7  8  9  

Terminal Aerodrome Forecast

080
FTUS42 KTAE 072320
TAFTLH
TAF
KTLH 072320Z 0800/0824 30005KT P6SM SKC
     FM081600 26017G30KT P6SM BKN050=

Latest METAR

388
SAUS80 KWBC 080800
MTRTLH
METAR KTLH 080753Z AUTO 00000KT 10SM CLR 00/M03 A3005 RMK AO2 SLP175
T00001028


USA.gov is the U.S. government's official web portal to all federal, state and local government web resources and services.